Time;durP1;ratioP1;P1;durP2;ratioP2;P2;SDS_P1;SDS_P2;PMS_P1;PMS_P2;Temp;Humidity;BMP_temperature;BMP_pressure;BME280_temperature;BME280_humidity;BME280_pressure;Samples;Min_cycle;Max_cycle;Signal;HPM_P1;HPM_P2
2024/04/08 00:01:01;;;;;;;5.25;1.10;;;;;;;-146.25;100.00;52305.34;2088162;28;20037;-64
2024/04/08 00:02:02;;;;;;;4.40;1.02;;;;;;;-146.25;100.00;52270.88;2087719;28;20099;-63
2024/04/08 00:03:03;;;;;;;4.28;0.90;;;;;;;-146.25;100.00;52270.88;2088109;28;20043;-63
2024/04/08 00:04:04;;;;;;;4.30;1.38;;;;;;;-146.25;100.00;52319.53;2080259;28;20128;-63
2024/04/08 00:05:07;;;;;;;3.83;0.98;;;;;;;-146.25;100.00;52274.94;2079657;28;20101;-63
2024/04/08 00:06:08;;;;;;;9.48;1.42;;;;;;;-146.25;100.00;52258.72;2080088;28;20042;-63
2024/04/08 00:07:08;;;;;;;5.15;1.05;;;;;;;-146.25;100.00;52283.03;2080029;28;20074;-63
2024/04/08 00:08:10;;;;;;;4.75;1.40;;;;;;;-146.25;100.00;52268.84;2080250;28;20092;-63
2024/04/08 00:09:12;;;;;;;5.88;1.20;;;;;;;-146.25;100.00;52281.00;2063438;28;20043;-64
2024/04/08 00:10:13;;;;;;;4.57;1.33;;;;;;;-146.25;100.00;52319.53;2071802;28;20044;-63
2024/04/08 00:11:14;;;;;;;4.75;1.48;;;;;;;-146.25;100.00;52287.09;2087908;28;20958;-63
2024/04/08 00:12:14;;;;;;;5.18;1.58;;;;;;;-146.25;100.00;52274.94;2079981;28;20057;-62
2024/04/08 00:13:15;;;;;;;4.40;1.13;;;;;;;-146.25;100.00;52327.66;2079812;28;20072;-63
2024/04/08 00:14:16;;;;;;;5.85;1.52;;;;;;;-146.25;100.00;52303.31;2080338;28;20073;-63
2024/04/08 00:15:17;;;;;;;7.07;1.52;;;;;;;-146.25;100.00;52287.09;2079454;28;20050;-62
2024/04/08 00:16:18;;;;;;;4.82;1.48;;;;;;;-146.25;100.00;52299.25;2080279;28;20070;-62
2024/04/08 00:17:18;;;;;;;8.52;1.45;;;;;;;-146.25;100.00;52264.78;2079610;28;20061;-62
2024/04/08 00:18:19;;;;;;;4.18;1.50;;;;;;;-146.25;100.00;52283.03;2088327;28;20034;-62
2024/04/08 00:19:20;;;;;;;5.68;1.58;;;;;;;-146.25;100.00;52266.81;2088048;28;20042;-62
2024/04/08 00:20:24;;;;;;;3.60;1.30;;;;;;;-146.25;100.00;52262.75;2079790;28;20060;-63
2024/04/08 00:21:25;;;;;;;3.58;1.20;;;;;;;-146.25;100.00;52272.91;2071672;28;20045;-62
2024/04/08 00:22:26;;;;;;;4.28;1.30;;;;;;;-146.25;100.00;52297.22;2088116;28;20049;-62
2024/04/08 00:23:27;;;;;;;4.38;1.23;;;;;;;-146.25;100.00;52291.16;2087756;28;20044;-62
2024/04/08 00:24:28;;;;;;;5.65;1.20;;;;;;;-146.25;100.00;52303.31;2071987;28;20516;-62
2024/04/08 00:25:29;;;;;;;5.90;1.40;;;;;;;-146.25;100.00;52299.25;2079710;28;20623;-62
2024/04/08 00:26:30;;;;;;;3.90;1.35;;;;;;;-146.25;100.00;52254.66;2079749;28;20108;-62
2024/04/08 00:27:31;;;;;;;5.80;1.42;;;;;;;-146.25;100.00;52297.22;2063456;28;20043;-62
2024/04/08 00:28:39;;;;;;;3.42;1.40;;;;;;;-146.25;100.00;52287.09;2079320;28;20042;-62
2024/04/08 00:29:39;;;;;;;4.57;1.38;;;;;;;-146.25;100.00;52299.25;2095237;28;20111;-62
2024/04/08 00:30:40;;;;;;;4.35;1.20;;;;;;;-146.25;100.00;52281.00;2079660;28;20089;-63
2024/04/08 00:31:41;;;;;;;5.97;1.20;;;;;;;-146.25;100.00;52274.94;2079791;28;20049;-62
2024/04/08 00:32:42;;;;;;;4.38;0.90;;;;;;;-146.25;100.00;52262.75;2087658;28;20088;-63
2024/04/08 00:33:43;;;;;;;4.88;1.55;;;;;;;-146.25;100.00;52293.19;2071823;28;20057;-63
2024/04/08 00:34:44;;;;;;;3.67;1.40;;;;;;;-146.25;100.00;52262.75;2079911;28;20113;-63
2024/04/08 00:35:44;;;;;;;3.92;1.08;;;;;;;-146.25;100.00;52283.03;2087928;28;20177;-63
2024/04/08 00:36:45;;;;;;;4.50;1.02;;;;;;;-146.25;100.00;52278.97;2071473;28;20106;-63
2024/04/08 00:37:48;;;;;;;4.18;1.15;;;;;;;-146.25;100.00;52295.19;2079993;28;20038;-62
2024/04/08 00:38:49;;;;;;;6.03;1.38;;;;;;;-146.25;100.00;52289.13;2079655;28;20050;-62
2024/04/08 00:39:49;;;;;;;3.85;1.15;;;;;;;-146.25;100.00;52270.88;2079627;28;20049;-62
2024/04/08 00:40:50;;;;;;;4.15;1.10;;;;;;;-146.25;100.00;52258.72;2088390;28;20041;-63
2024/04/08 00:41:51;;;;;;;2.15;0.80;;;;;;;-146.25;100.00;52311.44;2071741;28;20049;-63
2024/04/08 00:42:53;;;;;;;4.40;1.50;;;;;;;-146.25;100.00;52278.97;2079367;28;20042;-63
2024/04/08 00:43:54;;;;;;;7.43;1.27;;;;;;;-146.25;100.00;52262.75;2079908;28;20029;-63
2024/04/08 00:44:55;;;;;;;2.55;1.30;;;;;;;-146.25;100.00;52309.41;2079408;28;20045;-63
2024/04/08 00:45:57;;;;;;;4.38;1.23;;;;;;;-146.25;100.00;52270.88;2080052;28;20479;-63
2024/04/08 00:46:59;;;;;;;6.88;1.50;;;;;;;-146.25;100.00;52291.16;2064066;28;20043;-63
2024/04/08 00:48:00;;;;;;;3.78;1.10;;;;;;;-146.25;100.00;52260.72;2080078;28;20940;-63
2024/04/08 00:49:03;;;;;;;4.68;1.38;;;;;;;-146.25;100.00;52272.91;2078951;28;20065;-63
2024/04/08 00:50:04;;;;;;;4.65;1.17;;;;;;;-146.25;100.00;52295.19;2071497;28;20050;-63
2024/04/08 00:51:05;;;;;;;6.13;1.42;;;;;;;-146.25;100.00;52301.28;2071432;28;20038;-63
2024/04/08 00:52:16;;;;;;;8.82;1.52;;;;;;;-146.25;100.00;52258.72;2079709;28;20050;-63
2024/04/08 00:53:22;;;;;;;4.22;1.27;;;;;;;-146.25;100.00;52274.94;2089266;28;20041;-63
2024/04/08 00:54:28;;;;;;;4.80;1.20;;;;;;;-146.25;100.00;52299.25;2085695;28;20041;-63
2024/04/08 00:55:30;;;;;;;4.35;1.00;;;;;;;-146.25;100.00;52305.34;2063764;28;21003;-63
2024/04/08 00:56:31;;;;;;;6.53;1.33;;;;;;;-146.25;100.00;52242.50;2079722;28;20046;-62
2024/04/08 00:57:32;;;;;;;5.68;1.40;;;;;;;-146.25;100.00;52293.19;2079341;28;21574;-62
2024/04/08 00:58:33;;;;;;;5.63;1.25;;;;;;;-146.25;100.00;52291.16;2079926;28;20081;-63
2024/04/08 00:59:34;;;;;;;5.30;1.55;;;;;;;-146.25;100.00;52283.03;2087739;28;20037;-62
2024/04/08 01:00:35;;;;;;;3.15;1.05;;;;;;;-146.25;100.00;52278.97;2087850;28;20469;-62
2024/04/08 01:01:36;;;;;;;4.85;1.20;;;;;;;-146.25;100.00;52258.72;2087770;28;20079;-63
2024/04/08 01:02:39;;;;;;;3.35;1.00;;;;;;;-146.25;100.00;52291.16;2088492;28;20512;-62
2024/04/08 01:03:44;;;;;;;3.70;1.40;;;;;;;-146.25;100.00;52272.91;2071260;28;20035;-65
2024/04/08 01:04:44;;;;;;;6.25;1.30;;;;;;;-146.25;100.00;52299.25;2072087;28;20045;-64
2024/04/08 01:05:50;;;;;;;3.60;1.00;;;;;;;-146.25;100.00;52311.44;2086997;28;20503;-64
2024/04/08 01:06:52;;;;;;;3.72;1.20;;;;;;;-146.25;100.00;52276.97;2078765;28;20042;-64
2024/04/08 01:07:53;;;;;;;3.78;1.10;;;;;;;-146.25;100.00;52270.88;2079831;28;20121;-64
2024/04/08 01:10:18;;;;;;;4.20;1.35;;;;;;;-146.25;100.00;52303.31;2293450;25;20108;-64
2024/04/08 01:11:20;;;;;;;4.95;1.05;;;;;;;-146.25;100.00;52242.50;2261592;26;30980;-64
2024/04/08 01:12:21;;;;;;;4.80;1.25;;;;;;;-146.25;100.00;52274.94;2262409;26;21042;-64
2024/04/08 01:13:26;;;;;;;5.03;1.45;;;;;;;-146.25;100.00;52295.19;2277465;26;34153;-64
2024/04/08 01:14:29;;;;;;;2.33;0.90;;;;;;;-146.25;100.00;52262.75;2277597;25;35216;-64
2024/04/08 01:15:31;;;;;;;3.75;1.23;;;;;;;-146.25;100.00;52313.44;2262165;26;21046;-63
2024/04/08 01:16:33;;;;;;;5.03;1.23;;;;;;;-146.25;100.00;52295.19;2262084;26;37428;-65
2024/04/08 01:17:41;;;;;;;7.03;1.17;;;;;;;-146.25;100.00;52303.31;2278180;25;20009;-64
2024/04/08 01:18:43;;;;;;;6.03;1.20;;;;;;;-146.25;100.00;52287.09;2278401;25;20006;-64
2024/04/08 01:19:48;;;;;;;5.22;1.20;;;;;;;-146.25;100.00;52254.66;2277889;26;20006;-64
2024/04/08 01:20:50;;;;;;;6.25;1.30;;;;;;;-146.25;100.00;52315.47;2277688;26;33288;-64
2024/04/08 01:21:52;;;;;;;4.35;1.08;;;;;;;-146.25;100.00;52289.13;2278004;26;20006;-64
2024/04/08 01:22:56;;;;;;;5.50;1.35;;;;;;;-146.25;100.00;52319.53;2277248;26;39002;-64
2024/04/08 01:24:00;;;;;;;2.50;1.05;;;;;;;-146.25;100.00;52266.81;2261439;26;28887;-64
2024/04/08 01:25:04;;;;;;;3.78;1.35;;;;;;;-146.25;100.00;52319.53;2261172;26;30721;-64
2024/04/08 01:26:06;;;;;;;3.47;1.10;;;;;;;-146.25;100.00;52289.13;2246116;26;34434;-64
2024/04/08 01:27:08;;;;;;;5.70;1.42;;;;;;;-146.25;100.00;52283.03;2262427;26;30913;-64
2024/04/08 01:28:12;;;;;;;5.70;1.50;;;;;;;-146.25;100.00;52283.03;2276392;26;33515;-64
2024/04/08 01:29:14;;;;;;;7.28;1.40;;;;;;;-146.25;100.00;52295.19;2262391;26;31166;-63
2024/04/08 01:30:22;;;;;;;5.80;1.52;;;;;;;-146.25;100.00;52301.28;2262510;26;20014;-64
2024/04/08 01:31:24;;;;;;;4.68;1.45;;;;;;;-146.25;100.00;52256.69;2246655;26;35753;-64
2024/04/08 01:32:28;;;;;;;5.07;1.38;;;;;;;-146.25;100.00;52285.06;2247273;26;34958;-64
2024/04/08 01:33:31;;;;;;;7.40;1.55;;;;;;;-146.25;100.00;52276.97;2262442;26;32222;-64
2024/04/08 01:34:34;;;;;;;7.35;1.30;;;;;;;-146.25;100.00;52258.72;2262688;26;20007;-64
2024/04/08 01:35:36;;;;;;;9.10;1.60;;;;;;;-146.25;100.00;52250.59;2263045;26;21076;-64
2024/04/08 01:36:38;;;;;;;4.25;1.58;;;;;;;-146.25;100.00;52218.16;2261911;26;34417;-64
2024/04/08 01:37:43;;;;;;;6.07;1.50;;;;;;;-146.25;100.00;52297.22;2247451;26;20117;-64
2024/04/08 01:38:46;;;;;;;5.57;1.65;;;;;;;-146.25;100.00;52264.78;2263119;26;20003;-64
2024/04/08 01:39:47;;;;;;;7.60;1.75;;;;;;;-146.25;100.00;52333.72;2275966;26;37277;-64
2024/04/08 01:40:49;;;;;;;4.07;1.40;;;;;;;-146.25;100.00;52301.28;2263326;26;38179;-64
2024/04/08 01:41:51;;;;;;;4.53;1.77;;;;;;;-146.25;100.00;52309.41;2262320;26;32699;-65
2024/04/08 01:42:53;;;;;;;4.43;1.40;;;;;;;-146.25;100.00;52260.72;2261923;26;33879;-64
2024/04/08 01:43:55;;;;;;;7.65;2.00;;;;;;;-146.25;100.00;52291.16;2262276;26;33238;-64
2024/04/08 01:44:59;;;;;;;6.47;1.60;;;;;;;-146.25;100.00;52311.44;2262568;26;20003;-64
2024/04/08 01:46:01;;;;;;;5.35;1.83;;;;;;;-146.25;100.00;52295.19;2262148;26;37598;-64
2024/04/08 01:47:03;;;;;;;3.92;1.73;;;;;;;-146.25;100.00;52311.44;2246255;26;33945;-64
2024/04/08 01:48:06;;;;;;;6.03;1.75;;;;;;;-146.25;100.00;52291.16;2247307;26;29267;-64
2024/04/08 01:49:07;;;;;;;8.18;2.03;;;;;;;-146.25;100.00;52291.16;2262048;26;32205;-64
2024/04/08 01:50:12;;;;;;;6.10;1.95;;;;;;;-146.25;100.00;52297.22;2262428;26;30704;-64
2024/04/08 01:51:14;;;;;;;4.38;2.00;;;;;;;-146.25;100.00;52293.19;2261273;26;28961;-64
2024/04/08 01:52:16;;;;;;;5.00;2.13;;;;;;;-146.25;100.00;52293.19;2262211;26;20076;-64
2024/04/08 01:53:18;;;;;;;4.45;1.80;;;;;;;-146.25;100.00;52331.69;2261873;26;34440;-64
2024/04/08 01:54:23;;;;;;;4.30;1.90;;;;;;;-146.25;100.00;52272.91;2262650;26;34116;-64
2024/04/08 01:55:27;;;;;;;4.00;2.00;;;;;;;-146.25;100.00;52303.31;2275827;25;29929;-64
2024/04/08 01:56:29;;;;;;;7.80;1.98;;;;;;;-146.25;100.00;52311.44;2277573;26;34137;-64
2024/04/08 01:57:31;;;;;;;5.90;2.10;;;;;;;-146.25;100.00;52262.75;2276932;25;36128;-64
2024/04/08 01:58:33;;;;;;;4.95;1.88;;;;;;;-146.25;100.00;52301.28;2261550;26;34919;-64
2024/04/08 01:59:35;;;;;;;5.03;2.10;;;;;;;-146.25;100.00;52297.22;2261338;26;30799;-64
2024/04/08 02:00:36;;;;;;;3.40;2.00;;;;;;;-146.25;100.00;52266.81;2276398;25;36218;-64
2024/04/08 02:01:41;;;;;;;6.18;2.10;;;;;;;-146.25;100.00;52287.09;2261662;26;20812;-64
2024/04/08 02:02:43;;;;;;;5.15;2.50;;;;;;;-146.25;100.00;52274.94;2261360;26;35481;-64
2024/04/08 02:03:45;;;;;;;5.53;2.38;;;;;;;-146.25;100.00;52281.00;2261129;26;32402;-63
2024/04/08 02:04:46;;;;;;;6.03;2.00;;;;;;;-146.25;100.00;52297.22;2277264;25;36015;-64
2024/04/08 02:05:48;;;;;;;5.70;2.00;;;;;;;-146.25;100.00;52274.94;2276672;25;36467;-64
2024/04/08 02:06:50;;;;;;;7.32;2.45;;;;;;;-146.25;100.00;52258.72;2278045;25;33475;-64
2024/04/08 02:07:52;;;;;;;5.35;2.08;;;;;;;-146.25;100.00;52323.59;2277018;26;30006;-64
2024/04/08 02:08:54;;;;;;;8.38;2.53;;;;;;;-146.25;100.00;52309.41;2277239;26;37731;-64
2024/04/08 02:09:57;;;;;;;5.80;2.38;;;;;;;-146.25;100.00;52270.88;2275663;26;34288;-63
2024/04/08 02:10:59;;;;;;;3.88;2.40;;;;;;;-146.25;100.00;52258.72;2277236;26;36816;-64
2024/04/08 02:12:02;;;;;;;6.65;2.58;;;;;;;-146.25;100.00;52307.38;2277086;26;29711;-63
2024/04/08 02:13:06;;;;;;;5.63;2.58;;;;;;;-146.25;100.00;52285.06;2277169;26;36044;-64
2024/04/08 02:14:08;;;;;;;6.45;2.38;;;;;;;-146.25;100.00;52258.72;2277016;26;34035;-64
2024/04/08 02:15:10;;;;;;;4.50;2.55;;;;;;;-146.25;100.00;52258.72;2277580;26;23555;-63
2024/04/08 02:16:12;;;;;;;4.97;2.10;;;;;;;-146.25;100.00;52262.75;2276912;26;36899;-63
2024/04/08 02:17:13;;;;;;;6.55;2.78;;;;;;;-146.25;100.00;52281.00;2277730;26;35030;-64
2024/04/08 02:18:17;;;;;;;6.38;2.58;;;;;;;-146.25;100.00;52317.50;2276932;25;33823;-64
2024/04/08 02:19:19;;;;;;;4.55;1.83;;;;;;;-146.25;100.00;52289.13;2277038;26;38572;-64
2024/04/08 02:20:21;;;;;;;7.68;3.10;;;;;;;-146.25;100.00;52309.41;2277117;26;28518;-64
2024/04/08 02:21:23;;;;;;;6.80;2.58;;;;;;;-146.25;100.00;52289.13;2269251;26;35884;-64
2024/04/08 02:22:25;;;;;;;8.38;2.65;;;;;;;-146.25;100.00;52311.44;2270293;26;37098;-64
2024/04/08 02:23:27;;;;;;;7.22;2.67;;;;;;;-146.25;100.00;52262.75;2270737;26;34920;-63
2024/04/08 02:24:31;;;;;;;4.97;2.40;;;;;;;-146.25;100.00;52291.16;2270242;25;39467;-64
2024/04/08 02:25:42;;;;;;;7.40;3.10;;;;;;;-146.25;100.00;52278.97;2254706;26;24535;-62
2024/04/08 02:26:45;;;;;;;4.30;2.65;;;;;;;-146.25;100.00;52281.00;2257173;26;34793;-63
2024/04/08 02:27:47;;;;;;;6.65;3.05;;;;;;;-146.25;100.00;52295.19;2270977;26;35377;-64
2024/04/08 02:28:48;;;;;;;6.80;2.70;;;;;;;-146.25;100.00;52250.59;2270424;26;31533;-62
2024/04/08 02:29:51;;;;;;;5.88;2.90;;;;;;;-146.25;100.00;52270.88;2270553;26;37926;-63
2024/04/08 02:30:53;;;;;;;5.18;2.40;;;;;;;-146.25;100.00;52270.88;2270275;26;33500;-63
2024/04/08 02:31:55;;;;;;;6.05;2.67;;;;;;;-146.25;100.00;52281.00;2270799;26;37055;-63
2024/04/08 02:32:56;;;;;;;5.28;2.38;;;;;;;-146.25;100.00;52295.19;2270297;26;37284;-63
2024/04/08 02:33:58;;;;;;;7.88;2.70;;;;;;;-146.25;100.00;52274.94;2270786;26;33543;-64
2024/04/08 02:35:02;;;;;;;6.72;3.08;;;;;;;-146.25;100.00;52266.81;2270322;26;33904;-62
2024/04/08 02:36:04;;;;;;;6.55;2.83;;;;;;;-146.25;100.00;52270.88;2270539;26;31927;-62
2024/04/08 02:37:06;;;;;;;6.07;2.40;;;;;;;-146.25;100.00;52258.72;2269799;26;31039;-62
2024/04/08 02:38:08;;;;;;;6.60;2.72;;;;;;;-146.25;100.00;52317.50;2270751;26;22857;-64
2024/04/08 02:39:10;;;;;;;6.15;2.45;;;;;;;-146.25;100.00;52268.84;2270914;25;20421;-62
2024/04/08 02:40:12;;;;;;;7.38;2.63;;;;;;;-146.25;100.00;52291.16;2270313;26;38014;-62
2024/04/08 02:41:16;;;;;;;5.90;2.60;;;;;;;-146.25;100.00;52291.16;2269672;25;34796;-62
2024/04/08 02:42:19;;;;;;;6.88;3.13;;;;;;;-146.25;100.00;52276.97;2269032;26;35051;-63
2024/04/08 02:43:23;;;;;;;8.70;2.92;;;;;;;-146.25;100.00;52266.81;2270361;26;33154;-62
2024/04/08 02:44:25;;;;;;;8.00;2.80;;;;;;;-146.25;100.00;52303.31;2271536;26;20099;-63
2024/04/08 02:45:27;;;;;;;6.68;2.60;;;;;;;-146.25;100.00;52260.72;2270226;25;34932;-62
2024/04/08 02:46:28;;;;;;;7.47;2.63;;;;;;;-146.25;100.00;52319.53;2270659;25;32662;-63
2024/04/08 02:47:30;;;;;;;7.90;2.53;;;;;;;-146.25;100.00;52311.44;2271010;26;19999;-63
2024/04/08 02:48:32;;;;;;;4.63;2.40;;;;;;;-146.25;100.00;52270.88;2271446;26;20007;-63
2024/04/08 02:49:34;;;;;;;7.28;3.00;;;;;;;-146.25;100.00;52262.75;2269951;25;34409;-61
2024/04/08 02:50:36;;;;;;;9.00;3.10;;;;;;;-146.25;100.00;52250.59;2270559;26;36408;-62
2024/04/08 02:51:38;;;;;;;8.77;3.25;;;;;;;-146.25;100.00;52258.72;2270886;26;20170;-63
2024/04/08 02:52:40;;;;;;;6.72;3.10;;;;;;;-146.25;100.00;52272.91;2270133;26;37391;-63
2024/04/08 02:53:42;;;;;;;7.10;2.67;;;;;;;-146.25;100.00;52276.97;2270001;26;31301;-63
2024/04/08 02:54:46;;;;;;;4.63;2.60;;;;;;;-146.25;100.00;52266.81;2270228;25;29246;-63
2024/04/08 02:55:48;;;;;;;5.53;2.47;;;;;;;-146.25;100.00;52307.38;2269831;26;36054;-62
2024/04/08 02:56:50;;;;;;;8.70;2.80;;;;;;;-146.25;100.00;52297.22;2269847;26;36708;-63
2024/04/08 02:57:51;;;;;;;10.43;2.80;;;;;;;-146.25;100.00;52349.94;2254260;26;36386;-63
2024/04/08 02:58:56;;;;;;;7.20;2.92;;;;;;;-146.25;100.00;52315.47;2285652;25;34318;-63
2024/04/08 02:59:58;;;;;;;13.30;2.85;;;;;;;-146.25;100.00;52311.44;2285453;25;33013;-63
2024/04/08 03:01:09;;;;;;;6.72;2.67;;;;;;;-146.25;100.00;52299.25;2286325;25;35266;-63
2024/04/08 03:02:11;;;;;;;6.97;2.42;;;;;;;-146.25;100.00;52299.25;2285156;25;36458;-63
2024/04/08 03:03:13;;;;;;;6.07;2.42;;;;;;;-146.25;100.00;52281.00;2285941;25;33696;-62
2024/04/08 03:04:14;;;;;;;7.18;2.50;;;;;;;-146.25;100.00;52274.94;2285532;25;33388;-62
2024/04/08 03:05:16;;;;;;;10.55;2.88;;;;;;;-146.25;100.00;52329.66;2285819;25;35026;-62
2024/04/08 03:06:18;;;;;;;6.25;2.17;;;;;;;-146.25;100.00;52333.72;2285475;25;33913;-63
2024/04/08 03:07:22;;;;;;;5.10;2.13;;;;;;;-146.25;100.00;52295.19;2285688;25;38980;-63
2024/04/08 03:08:24;;;;;;;8.80;2.38;;;;;;;-146.25;100.00;52260.72;2285608;25;31537;-63
2024/04/08 03:09:26;;;;;;;5.85;2.22;;;;;;;-146.25;100.00;52295.19;2285639;25;34308;-63
2024/04/08 03:10:30;;;;;;;6.55;1.80;;;;;;;-146.25;100.00;52307.38;2285262;25;35741;-63
2024/04/08 03:11:32;;;;;;;9.20;2.50;;;;;;;-146.25;100.00;52299.25;2286403;25;20733;-63
2024/04/08 03:12:34;;;;;;;7.18;2.10;;;;;;;-146.25;100.00;52299.25;2285452;25;34474;-63
2024/04/08 03:13:39;;;;;;;6.00;2.38;;;;;;;-146.25;100.00;52283.03;2285959;25;37074;-62
2024/04/08 03:14:41;;;;;;;6.57;2.15;;;;;;;-146.25;100.00;52307.38;2278435;25;33513;-63
2024/04/08 03:15:42;;;;;;;6.50;2.85;;;;;;;-146.25;100.00;52270.88;2270662;26;33816;-63
2024/04/08 03:16:45;;;;;;;6.43;2.33;;;;;;;-146.25;100.00;52289.13;2270102;26;33759;-63
2024/04/08 03:17:47;;;;;;;4.15;2.60;;;;;;;-146.25;100.00;52307.38;2271146;26;20132;-63
2024/04/08 03:18:52;;;;;;;4.93;2.45;;;;;;;-146.25;100.00;52250.59;2270094;26;35411;-63
2024/04/08 03:19:55;;;;;;;6.05;1.95;;;;;;;-146.25;100.00;52289.13;2270417;26;33907;-63
2024/04/08 03:20:59;;;;;;;5.63;2.40;;;;;;;-146.25;100.00;52287.09;2269967;26;37401;-63
2024/04/08 03:22:04;;;;;;;5.97;2.33;;;;;;;-146.25;100.00;52301.28;2270406;26;36680;-63
2024/04/08 03:23:08;;;;;;;8.73;2.70;;;;;;;-146.25;100.00;52289.13;2270039;26;34851;-63
2024/04/08 03:24:12;;;;;;;8.50;2.88;;;;;;;-146.25;100.00;52299.25;2270803;26;35317;-63
2024/04/08 03:25:14;;;;;;;9.98;3.25;;;;;;;-146.25;100.00;52289.13;2269535;26;33814;-63
2024/04/08 03:26:18;;;;;;;7.03;2.85;;;;;;;-146.25;100.00;52256.69;2254942;26;35383;-63
2024/04/08 03:27:20;;;;;;;10.27;3.17;;;;;;;-146.25;100.00;52287.09;2255417;26;30868;-62
2024/04/08 03:28:23;;;;;;;6.43;3.50;;;;;;;-146.25;100.00;52311.44;2270486;26;35474;-63
2024/04/08 03:29:25;;;;;;;10.80;3.67;;;;;;;-146.25;100.00;52281.00;2254045;26;36410;-63
2024/04/08 03:30:27;;;;;;;8.30;3.00;;;;;;;-146.25;100.00;52311.44;2255259;26;33449;-63
2024/04/08 03:31:31;;;;;;;8.98;3.70;;;;;;;-146.25;100.00;52299.25;2269859;26;36676;-63
2024/04/08 03:32:33;;;;;;;6.95;3.28;;;;;;;-146.25;100.00;52317.50;2271447;26;20006;-63
2024/04/08 03:33:35;;;;;;;8.68;3.17;;;;;;;-146.25;100.00;52287.09;2269952;26;36683;-63
2024/04/08 03:34:37;;;;;;;6.43;3.05;;;;;;;-146.25;100.00;52283.03;2270642;26;33200;-63
2024/04/08 03:35:39;;;;;;;7.20;3.50;;;;;;;-146.25;100.00;52309.41;2269860;26;34725;-62
2024/04/08 03:36:40;;;;;;;5.78;3.05;;;;;;;-146.25;100.00;52258.72;2270322;26;37937;-62
2024/04/08 03:37:42;;;;;;;9.05;3.50;;;;;;;-146.25;100.00;52287.09;2270924;26;20037;-62
2024/04/08 03:38:46;;;;;;;6.13;3.30;;;;;;;-146.25;100.00;52315.47;2270370;26;36552;-62
2024/04/08 03:39:49;;;;;;;9.38;3.30;;;;;;;-146.25;100.00;52287.09;2270200;26;34909;-63
2024/04/08 03:41:03;;;;;;;7.63;3.65;;;;;;;-146.25;100.00;52281.00;2270220;26;33128;-63
2024/04/08 03:42:05;;;;;;;8.77;3.75;;;;;;;-146.25;100.00;52289.13;2254026;26;39036;-63
2024/04/08 03:43:07;;;;;;;9.75;2.95;;;;;;;-146.25;100.00;52319.53;2256220;26;20006;-63
2024/04/08 03:44:09;;;;;;;7.28;2.80;;;;;;;-146.25;100.00;52319.53;2269982;26;36211;-63
2024/04/08 03:45:11;;;;;;;7.65;3.38;;;;;;;-146.25;100.00;52305.34;2270942;26;20006;-63
2024/04/08 03:46:13;;;;;;;6.60;3.33;;;;;;;-146.25;100.00;52299.25;2270547;26;34185;-63
2024/04/08 03:47:15;;;;;;;5.40;3.25;;;;;;;-146.25;100.00;52329.66;2271059;26;21187;-63
2024/04/08 03:48:20;;;;;;;5.95;3.20;;;;;;;-146.25;100.00;52252.63;2270085;26;37079;-63
2024/04/08 03:49:22;;;;;;;6.40;3.42;;;;;;;-146.25;100.00;52305.34;2270189;26;35041;-63
2024/04/08 03:50:31;;;;;;;8.93;3.63;;;;;;;-146.25;100.00;52281.00;2270702;26;21244;-63
2024/04/08 03:51:33;;;;;;;7.03;3.50;;;;;;;-146.25;100.00;52285.06;2270289;26;32670;-63
2024/04/08 03:52:35;;;;;;;8.73;3.85;;;;;;;-146.25;100.00;52319.53;2270144;26;32571;-63
2024/04/08 03:53:40;;;;;;;10.02;3.22;;;;;;;-146.25;100.00;52307.38;2270463;26;31754;-62
2024/04/08 03:54:42;;;;;;;9.00;3.60;;;;;;;-146.25;100.00;52285.06;2269841;25;38357;-63
2024/04/08 03:55:45;;;;;;;8.63;3.60;;;;;;;-146.25;100.00;52295.19;2270429;26;21063;-62
2024/04/08 03:56:49;;;;;;;8.85;3.72;;;;;;;-146.25;100.00;52325.63;2270122;26;31271;-63
2024/04/08 03:57:52;;;;;;;7.28;3.47;;;;;;;-146.25;100.00;52305.34;2271044;26;20039;-63
2024/04/08 03:58:58;;;;;;;7.55;3.42;;;;;;;-146.25;100.00;52325.63;2271044;26;20009;-63
2024/04/08 04:00:03;;;;;;;6.72;3.65;;;;;;;-146.25;100.00;52307.38;2270639;26;20007;-63
2024/04/08 04:01:07;;;;;;;7.32;3.55;;;;;;;-146.25;100.00;52274.94;2270080;26;34300;-63
2024/04/08 04:02:09;;;;;;;11.07;3.83;;;;;;;-146.25;100.00;52309.41;2254095;26;33006;-62
2024/04/08 04:03:11;;;;;;;9.50;4.13;;;;;;;-146.25;100.00;52309.41;2254814;26;35216;-63
2024/04/08 04:04:13;;;;;;;9.82;3.65;;;;;;;-146.25;100.00;52317.50;2270156;25;38663;-63
2024/04/08 04:05:15;;;;;;;11.35;3.55;;;;;;;-146.25;100.00;52335.75;2270730;26;20160;-63
2024/04/08 04:06:16;;;;;;;8.52;4.10;;;;;;;-146.25;100.00;52321.56;2270028;26;34689;-63
2024/04/08 04:07:18;;;;;;;9.75;3.80;;;;;;;-146.25;100.00;52333.72;2270119;26;32702;-63
2024/04/08 04:08:20;;;;;;;9.45;3.92;;;;;;;-146.25;100.00;52285.06;2270449;26;34721;-63
2024/04/08 04:09:22;;;;;;;8.35;3.90;;;;;;;-146.25;100.00;52321.56;2270551;25;20017;-63
2024/04/08 04:10:24;;;;;;;6.50;3.75;;;;;;;-146.25;100.00;52327.66;2269948;26;30344;-63
2024/04/08 04:11:27;;;;;;;8.95;3.90;;;;;;;-146.25;100.00;52309.41;2269850;26;35431;-63
2024/04/08 04:12:29;;;;;;;10.18;4.28;;;;;;;-146.25;100.00;52305.34;2270728;26;20001;-63
2024/04/08 04:13:31;;;;;;;9.77;4.00;;;;;;;-146.25;100.00;52283.03;2269932;26;37355;-63
2024/04/08 04:14:33;;;;;;;6.25;3.80;;;;;;;-146.25;100.00;52295.19;2270881;26;20116;-63
2024/04/08 04:15:34;;;;;;;8.18;3.65;;;;;;;-146.25;100.00;52299.25;2254423;26;21399;-63
2024/04/08 04:16:36;;;;;;;6.57;4.10;;;;;;;-146.25;100.00;52291.16;2254332;26;30800;-63
2024/04/08 04:17:39;;;;;;;10.82;4.13;;;;;;;-146.25;100.00;52293.19;2270835;26;20013;-63
2024/04/08 04:18:43;;;;;;;10.18;3.80;;;;;;;-146.25;100.00;52299.25;2270309;26;33148;-63
2024/04/08 04:19:45;;;;;;;8.77;4.18;;;;;;;-146.25;100.00;52276.97;2270049;25;34278;-63
2024/04/08 04:20:47;;;;;;;8.00;3.72;;;;;;;-146.25;100.00;52297.22;2270970;26;20515;-63
2024/04/08 04:21:49;;;;;;;9.38;4.18;;;;;;;-146.25;100.00;52347.91;2269942;26;34669;-63
2024/04/08 04:22:51;;;;;;;7.80;4.32;;;;;;;-146.25;100.00;52327.66;2270129;26;36159;-63
2024/04/08 04:23:53;;;;;;;8.38;4.63;;;;;;;-146.25;100.00;52299.25;2270728;26;20124;-63
2024/04/08 04:24:55;;;;;;;8.00;4.30;;;;;;;-146.25;100.00;52315.47;2269979;25;37488;-63
2024/04/08 04:25:59;;;;;;;9.23;4.18;;;;;;;-146.25;100.00;52309.41;2269623;25;32580;-63
2024/04/08 04:27:01;;;;;;;9.57;4.45;;;;;;;-146.25;100.00;52321.56;2270084;26;36028;-63
2024/04/08 04:28:04;;;;;;;10.32;4.35;;;;;;;-146.25;100.00;52270.88;2270070;26;32841;-63
2024/04/08 04:29:05;;;;;;;10.73;4.60;;;;;;;-146.25;100.00;52305.34;2270171;26;31896;-63
2024/04/08 04:30:08;;;;;;;6.63;3.83;;;;;;;-146.25;100.00;52333.72;2269724;26;40035;-63
2024/04/08 04:31:13;;;;;;;8.93;4.97;;;;;;;-146.25;100.00;52315.47;2270538;26;32395;-63
2024/04/08 04:32:14;;;;;;;10.35;4.80;;;;;;;-146.25;100.00;52323.59;2269934;25;33216;-63
2024/04/08 04:33:16;;;;;;;8.25;4.57;;;;;;;-146.25;100.00;52315.47;2270321;26;31726;-63
2024/04/08 04:34:18;;;;;;;8.15;4.18;;;;;;;-146.25;100.00;52319.53;2270035;26;29801;-63
2024/04/08 04:35:22;;;;;;;9.65;5.60;;;;;;;-146.25;100.00;52321.56;2269864;26;38019;-63
2024/04/08 04:36:24;;;;;;;11.25;5.35;;;;;;;-146.25;100.00;52291.16;2269957;26;36566;-63
2024/04/08 04:37:28;;;;;;;11.55;5.43;;;;;;;-146.25;100.00;52297.22;2270642;26;20019;-63
2024/04/08 04:38:30;;;;;;;9.48;5.63;;;;;;;-146.25;100.00;52299.25;2268146;26;35084;-63
2024/04/08 04:39:32;;;;;;;8.05;5.72;;;;;;;-146.25;100.00;52319.53;2269309;25;33687;-63
2024/04/08 04:40:36;;;;;;;11.32;4.80;;;;;;;-146.25;100.00;52349.94;2269480;26;36178;-63
2024/04/08 04:41:38;;;;;;;12.98;6.60;;;;;;;-146.25;100.00;52299.25;2270652;26;21298;-63
2024/04/08 04:42:44;;;;;;;12.07;5.82;;;;;;;-146.25;100.00;52303.31;2269935;26;37493;-64
2024/04/08 04:43:48;;;;;;;10.02;5.28;;;;;;;-146.25;100.00;52299.25;2269809;26;36813;-63
2024/04/08 04:44:50;;;;;;;8.57;4.97;;;;;;;-146.25;100.00;52283.03;2269594;26;27177;-62
2024/04/08 04:45:52;;;;;;;10.48;5.47;;;;;;;-146.25;100.00;52331.69;2270334;26;37702;-62